sensor_id;sensor_type;location;lat;lon;timestamp;pressure;altitude;pressure_sealevel;temperature;humidity
31681;BME280;18281;51.364;9.566;2022-12-29T00:02:11;99007.34;;;5.49;100.00
31681;BME280;18281;51.364;9.566;2022-12-29T00:04:37;99010.41;;;5.57;100.00
31681;BME280;18281;51.364;9.566;2022-12-29T00:07:03;99021.81;;;5.55;100.00
31681;BME280;18281;51.364;9.566;2022-12-29T00:09:32;98999.84;;;5.61;100.00
31681;BME280;18281;51.364;9.566;2022-12-29T00:11:58;99000.44;;;5.66;100.00
31681;BME280;18281;51.364;9.566;2022-12-29T00:14:24;99005.03;;;5.61;100.00
31681;BME280;18281;51.364;9.566;2022-12-29T00:17:08;99012.09;;;5.59;100.00
31681;BME280;18281;51.364;9.566;2022-12-29T00:19:34;99007.50;;;5.64;100.00
31681;BME280;18281;51.364;9.566;2022-12-29T00:22:18;99015.16;;;5.67;100.00
31681;BME280;18281;51.364;9.566;2022-12-29T00:25:03;99006.03;;;5.76;100.00
31681;BME280;18281;51.364;9.566;2022-12-29T00:27:34;99013.25;;;5.70;100.00
31681;BME280;18281;51.364;9.566;2022-12-29T00:30:21;99015.47;;;5.61;100.00
31681;BME280;18281;51.364;9.566;2022-12-29T00:33:26;99013.31;;;5.69;100.00
31681;BME280;18281;51.364;9.566;2022-12-29T00:36:32;99021.28;;;5.66;100.00
31681;BME280;18281;51.364;9.566;2022-12-29T00:39:10;99013.31;;;5.69;100.00
31681;BME280;18281;51.364;9.566;2022-12-29T00:42:06;99022.78;;;5.70;100.00
31681;BME280;18281;51.364;9.566;2022-12-29T00:44:51;99005.97;;;5.77;100.00
31681;BME280;18281;51.364;9.566;2022-12-29T00:47:16;99013.78;;;5.77;100.00
31681;BME280;18281;51.364;9.566;2022-12-29T00:49:42;99008.25;;;5.66;100.00
31681;BME280;18281;51.364;9.566;2022-12-29T00:52:10;99008.47;;;5.79;100.00
31681;BME280;18281;51.364;9.566;2022-12-29T00:54:37;99001.88;;;5.71;100.00
31681;BME280;18281;51.364;9.566;2022-12-29T00:57:05;99004.56;;;5.70;100.00
31681;BME280;18281;51.364;9.566;2022-12-29T00:59:31;99010.09;;;5.81;100.00
31681;BME280;18281;51.364;9.566;2022-12-29T01:01:57;98994.53;;;5.80;100.00
31681;BME280;18281;51.364;9.566;2022-12-29T01:04:26;98994.28;;;5.84;100.00
31681;BME280;18281;51.364;9.566;2022-12-29T01:06:52;98986.47;;;5.84;100.00
31681;BME280;18281;51.364;9.566;2022-12-29T01:09:19;98981.25;;;5.84;100.00
31681;BME280;18281;51.364;9.566;2022-12-29T01:12:04;98977.13;;;5.80;100.00
31681;BME280;18281;51.364;9.566;2022-12-29T01:14:31;98981.25;;;5.84;100.00
31681;BME280;18281;51.364;9.566;2022-12-29T01:16:57;98988.84;;;5.89;100.00
31681;BME280;18281;51.364;9.566;2022-12-29T01:19:23;98977.56;;;5.88;100.00
31681;BME280;18281;51.364;9.566;2022-12-29T01:21:49;98974.47;;;5.98;100.00
31681;BME280;18281;51.364;9.566;2022-12-29T01:24:16;98974.47;;;5.98;100.00
31681;BME280;18281;51.364;9.566;2022-12-29T01:26:42;98962.22;;;6.00;100.00
31681;BME280;18281;51.364;9.566;2022-12-29T01:29:08;98962.47;;;5.95;100.00
31681;BME280;18281;51.364;9.566;2022-12-29T01:31:35;98947.84;;;5.93;100.00
31681;BME280;18281;51.364;9.566;2022-12-29T01:34:03;98943.31;;;5.96;100.00
31681;BME280;18281;51.364;9.566;2022-12-29T01:36:32;98927.59;;;5.98;100.00
31681;BME280;18281;51.364;9.566;2022-12-29T01:39:02;98931.78;;;6.00;100.00
31681;BME280;18281;51.364;9.566;2022-12-29T01:41:27;98926.06;;;5.94;100.00
31681;BME280;18281;51.364;9.566;2022-12-29T01:43:55;98936.81;;;6.03;100.00
31681;BME280;18281;51.364;9.566;2022-12-29T01:46:40;98923.16;;;6.00;100.00
31681;BME280;18281;51.364;9.566;2022-12-29T01:49:26;98927.34;;;6.02;100.00
31681;BME280;18281;51.364;9.566;2022-12-29T01:51:57;98934.22;;;6.03;100.00
31681;BME280;18281;51.364;9.566;2022-12-29T01:54:28;98937.28;;;5.96;100.00
31681;BME280;18281;51.364;9.566;2022-12-29T01:56:57;98935.16;;;6.02;100.00
31681;BME280;18281;51.364;9.566;2022-12-29T01:59:28;98938.28;;;6.09;100.00
31681;BME280;18281;51.364;9.566;2022-12-29T02:01:55;98942.03;;;6.03;100.00
31681;BME280;18281;51.364;9.566;2022-12-29T02:04:23;98943.56;;;6.07;100.00
31681;BME280;18281;51.364;9.566;2022-12-29T02:06:54;98936.59;;;6.08;100.00
31681;BME280;18281;51.364;9.566;2022-12-29T02:09:22;98927.59;;;5.98;100.00
31681;BME280;18281;51.364;9.566;2022-12-29T02:11:48;98936.59;;;6.08;100.00
31681;BME280;18281;51.364;9.566;2022-12-29T02:14:14;98922.97;;;6.03;100.00
31681;BME280;18281;51.364;9.566;2022-12-29T02:19:57;98908.53;;;6.13;100.00
31681;BME280;18281;51.364;9.566;2022-12-29T02:22:35;98907.94;;;6.08;100.00
31681;BME280;18281;51.364;9.566;2022-12-29T02:25:20;98901.94;;;6.06;100.00
31681;BME280;18281;51.364;9.566;2022-12-29T02:31:01;98904.97;;;6.14;100.00
31681;BME280;18281;51.364;9.566;2022-12-29T02:36:14;98893.22;;;6.07;100.00
31681;BME280;18281;51.364;9.566;2022-12-29T02:39:05;98891.22;;;6.12;100.00
31681;BME280;18281;51.364;9.566;2022-12-29T02:42:09;98892.72;;;6.16;100.00
31681;BME280;18281;51.364;9.566;2022-12-29T02:47:29;98876.91;;;6.19;100.00
31681;BME280;18281;51.364;9.566;2022-12-29T02:50:26;98891.22;;;6.12;100.00
31681;BME280;18281;51.364;9.566;2022-12-29T02:53:02;98873.28;;;6.22;100.00
31681;BME280;18281;51.364;9.566;2022-12-29T02:55:29;98882.47;;;6.13;100.00
31681;BME280;18281;51.364;9.566;2022-12-29T02:58:24;98882.19;;;6.18;100.00
31681;BME280;18281;51.364;9.566;2022-12-29T03:01:18;98886.72;;;6.14;100.00
31681;BME280;18281;51.364;9.566;2022-12-29T03:10:06;98874.28;;;6.19;100.00
31681;BME280;18281;51.364;9.566;2022-12-29T03:12:56;98856.34;;;5.99;100.00
31681;BME280;18281;51.364;9.566;2022-12-29T03:15:50;98854.06;;;5.93;100.00
31681;BME280;18281;51.364;9.566;2022-12-29T03:18:40;98856.66;;;5.93;100.00
31681;BME280;18281;51.364;9.566;2022-12-29T03:21:17;98861.88;;;5.93;100.00
31681;BME280;18281;51.364;9.566;2022-12-29T03:23:48;98864.56;;;5.91;100.00
31681;BME280;18281;51.364;9.566;2022-12-29T03:26:16;98860.34;;;5.88;100.00
31681;BME280;18281;51.364;9.566;2022-12-29T03:28:56;98856.56;;;5.94;100.00
31681;BME280;18281;51.364;9.566;2022-12-29T03:31:23;98850.63;;;5.92;100.00
31681;BME280;18281;51.364;9.566;2022-12-29T03:33:50;98852.22;;;5.95;100.00
31681;BME280;18281;51.364;9.566;2022-12-29T03:36:26;98846.25;;;5.93;100.00
31681;BME280;18281;51.364;9.566;2022-12-29T03:39:00;98855.75;;;5.94;100.00
31681;BME280;18281;51.364;9.566;2022-12-29T03:41:30;98873.78;;;5.97;100.00
31681;BME280;18281;51.364;9.566;2022-12-29T03:43:57;98862.47;;;5.98;100.00
31681;BME280;18281;51.364;9.566;2022-12-29T03:46:22;98865.38;;;5.92;100.00
31681;BME280;18281;51.364;9.566;2022-12-29T03:48:48;98870.38;;;5.96;100.00
31681;BME280;18281;51.364;9.566;2022-12-29T03:51:14;98857.06;;;6.01;100.00
31681;BME280;18281;51.364;9.566;2022-12-29T03:53:40;98846.50;;;6.04;100.00
31681;BME280;18281;51.364;9.566;2022-12-29T03:56:06;98853.84;;;6.28;100.00
31681;BME280;18281;51.364;9.566;2022-12-29T03:58:31;98860.41;;;6.35;100.00
31681;BME280;18281;51.364;9.566;2022-12-29T04:00:57;98868.97;;;6.37;100.00
31681;BME280;18281;51.364;9.566;2022-12-29T04:03:23;98860.06;;;6.41;100.00
31681;BME280;18281;51.364;9.566;2022-12-29T04:05:49;98857.88;;;6.49;100.00
31681;BME280;18281;51.364;9.566;2022-12-29T04:08:14;98858.13;;;6.45;100.00
31681;BME280;18281;51.364;9.566;2022-12-29T04:10:40;98858.94;;;6.45;100.00
31681;BME280;18281;51.364;9.566;2022-12-29T04:13:06;98845.19;;;6.43;100.00
31681;BME280;18281;51.364;9.566;2022-12-29T04:15:32;98842.22;;;6.49;100.00
31681;BME280;18281;51.364;9.566;2022-12-29T04:17:57;98838.94;;;6.46;100.00
31681;BME280;18281;51.364;9.566;2022-12-29T04:20:26;98832.22;;;6.42;100.00
31681;BME280;18281;51.364;9.566;2022-12-29T04:23:10;98825.53;;;6.52;100.00
31681;BME280;18281;51.364;9.566;2022-12-29T04:25:36;98827.22;;;6.53;100.00
31681;BME280;18281;51.364;9.566;2022-12-29T04:28:02;98828.09;;;6.53;100.00
31681;BME280;18281;51.364;9.566;2022-12-29T04:30:28;98834.03;;;6.55;100.00
31681;BME280;18281;51.364;9.566;2022-12-29T04:32:54;98823.69;;;6.54;100.00
31681;BME280;18281;51.364;9.566;2022-12-29T04:35:19;98818.47;;;6.54;100.00
31681;BME280;18281;51.364;9.566;2022-12-29T04:37:45;98829.59;;;6.57;100.00
31681;BME280;18281;51.364;9.566;2022-12-29T04:40:11;98828.81;;;6.55;100.00
31681;BME280;18281;51.364;9.566;2022-12-29T04:42:39;98826.41;;;6.52;100.00
31681;BME280;18281;51.364;9.566;2022-12-29T04:45:08;98828.09;;;6.53;100.00
31681;BME280;18281;51.364;9.566;2022-12-29T04:47:34;98820.06;;;6.56;100.00
31681;BME280;18281;51.364;9.566;2022-12-29T04:50:03;98832.00;;;6.61;100.00
31681;BME280;18281;51.364;9.566;2022-12-29T04:52:34;98830.31;;;6.60;100.00
31681;BME280;18281;51.364;9.566;2022-12-29T04:55:00;98832.00;;;6.61;100.00
31681;BME280;18281;51.364;9.566;2022-12-29T04:57:27;98833.13;;;6.56;100.00
31681;BME280;18281;51.364;9.566;2022-12-29T04:59:53;98837.03;;;6.64;100.00
31681;BME280;18281;51.364;9.566;2022-12-29T05:02:18;98822.69;;;6.56;100.00
31681;BME280;18281;51.364;9.566;2022-12-29T05:04:44;98830.50;;;6.56;100.00
31681;BME280;18281;51.364;9.566;2022-12-29T05:07:11;98830.69;;;6.53;100.00
31681;BME280;18281;51.364;9.566;2022-12-29T05:09:37;98831.25;;;6.58;100.00
31681;BME280;18281;51.364;9.566;2022-12-29T05:12:03;98818.13;;;6.60;100.00
31681;BME280;18281;51.364;9.566;2022-12-29T05:14:28;98821.84;;;6.56;100.00
31681;BME280;18281;51.364;9.566;2022-12-29T05:16:54;98823.88;;;6.51;100.00
31681;BME280;18281;51.364;9.566;2022-12-29T05:19:23;98812.25;;;6.56;100.00
31681;BME280;18281;51.364;9.566;2022-12-29T05:21:48;98812.88;;;6.46;100.00
31681;BME280;18281;51.364;9.566;2022-12-29T05:24:14;98813.47;;;6.51;100.00
31681;BME280;18281;51.364;9.566;2022-12-29T05:26:41;98821.00;;;6.55;100.00
31681;BME280;18281;51.364;9.566;2022-12-29T05:29:06;98807.22;;;6.53;100.00
31681;BME280;18281;51.364;9.566;2022-12-29T05:31:32;98805.63;;;6.51;100.00
31681;BME280;18281;51.364;9.566;2022-12-29T05:33:58;98821.66;;;6.59;100.00
31681;BME280;18281;51.364;9.566;2022-12-29T05:36:24;98819.16;;;6.57;100.00
31681;BME280;18281;51.364;9.566;2022-12-29T05:38:50;98810.56;;;6.55;100.00
31681;BME280;18281;51.364;9.566;2022-12-29T05:41:15;98803.50;;;6.57;100.00
31681;BME280;18281;51.364;9.566;2022-12-29T05:43:41;98809.34;;;6.47;100.00
31681;BME280;18281;51.364;9.566;2022-12-29T05:46:07;98807.38;;;6.50;100.00
31681;BME280;18281;51.364;9.566;2022-12-29T05:48:32;98824.63;;;6.53;100.00
31681;BME280;18281;51.364;9.566;2022-12-29T05:50:58;98822.50;;;6.60;100.00
31681;BME280;18281;51.364;9.566;2022-12-29T05:53:27;98814.28;;;6.51;100.00
31681;BME280;18281;51.364;9.566;2022-12-29T05:55:53;98805.88;;;6.46;100.00
31681;BME280;18281;51.364;9.566;2022-12-29T05:58:24;98814.47;;;6.48;100.00
31681;BME280;18281;51.364;9.566;2022-12-29T06:00:49;98807.38;;;6.50;100.00
31681;BME280;18281;51.364;9.566;2022-12-29T06:03:15;98794.00;;;6.56;100.00
31681;BME280;18281;51.364;9.566;2022-12-29T06:05:40;98789.03;;;6.52;100.00
31681;BME280;18281;51.364;9.566;2022-12-29T06:08:06;98774.25;;;6.52;100.00
31681;BME280;18281;51.364;9.566;2022-12-29T06:10:31;98779.66;;;6.49;100.00
31681;BME280;18281;51.364;9.566;2022-12-29T06:12:57;98790.16;;;6.48;100.00
31681;BME280;18281;51.364;9.566;2022-12-29T06:15:23;98792.28;;;6.41;100.00
31681;BME280;18281;51.364;9.566;2022-12-29T06:17:49;98806.31;;;6.38;100.00
31681;BME280;18281;51.364;9.566;2022-12-29T06:20:15;98802.63;;;6.43;100.00
31681;BME280;18281;51.364;9.566;2022-12-29T06:22:40;98794.00;;;6.56;100.00
31681;BME280;18281;51.364;9.566;2022-12-29T06:25:06;98804.63;;;6.53;100.00
31681;BME280;18281;51.364;9.566;2022-12-29T06:27:32;98807.56;;;6.47;100.00
31681;BME280;18281;51.364;9.566;2022-12-29T06:29:58;98825.47;;;6.53;100.00
31681;BME280;18281;51.364;9.566;2022-12-29T06:32:24;98814.47;;;6.48;100.00
31681;BME280;18281;51.364;9.566;2022-12-29T06:34:49;98812.06;;;6.60;100.00
31681;BME280;18281;51.364;9.566;2022-12-29T06:37:15;98814.94;;;6.55;100.00
31681;BME280;18281;51.364;9.566;2022-12-29T06:42:16;98818.38;;;6.55;100.00
31681;BME280;18281;51.364;9.566;2022-12-29T06:44:41;98823.41;;;6.44;100.00
31681;BME280;18281;51.364;9.566;2022-12-29T06:47:06;98818.19;;;6.58;100.00
31681;BME280;18281;51.364;9.566;2022-12-29T06:49:32;98813.38;;;6.52;100.00
31681;BME280;18281;51.364;9.566;2022-12-29T06:51:57;98815.97;;;6.52;100.00
31681;BME280;18281;51.364;9.566;2022-12-29T06:54:24;98814.84;;;6.56;100.00
31681;BME280;18281;51.364;9.566;2022-12-29T06:56:50;98815.34;;;6.63;100.00
31681;BME280;18281;51.364;9.566;2022-12-29T06:59:15;98810.94;;;6.49;100.00
31681;BME280;18281;51.364;9.566;2022-12-29T07:01:41;98805.72;;;6.49;100.00
31681;BME280;18281;51.364;9.566;2022-12-29T07:04:06;98809.69;;;6.40;100.00
31681;BME280;18281;51.364;9.566;2022-12-29T07:06:32;98815.91;;;6.38;100.00
31681;BME280;18281;51.364;9.566;2022-12-29T07:08:57;98821.72;;;6.43;100.00
31681;BME280;18281;51.364;9.566;2022-12-29T07:11:23;98826.94;;;6.43;100.00
31681;BME280;18281;51.364;9.566;2022-12-29T07:13:49;98826.59;;;6.49;100.00
31681;BME280;18281;51.364;9.566;2022-12-29T07:16:15;98816.91;;;6.51;100.00
31681;BME280;18281;51.364;9.566;2022-12-29T07:18:41;98824.72;;;6.51;100.00
31681;BME280;18281;51.364;9.566;2022-12-29T07:21:07;98824.22;;;6.45;100.00
31681;BME280;18281;51.364;9.566;2022-12-29T07:23:48;98817.31;;;6.44;100.00
31681;BME280;18281;51.364;9.566;2022-12-29T07:29:24;98823.13;;;6.49;100.00
31681;BME280;18281;51.364;9.566;2022-12-29T07:31:50;98835.41;;;6.47;100.00
31681;BME280;18281;51.364;9.566;2022-12-29T07:34:19;98843.88;;;6.50;100.00
31681;BME280;18281;51.364;9.566;2022-12-29T07:36:47;98842.13;;;6.51;100.00
31681;BME280;18281;51.364;9.566;2022-12-29T07:39:13;98836.16;;;6.49;100.00
31681;BME280;18281;51.364;9.566;2022-12-29T07:41:38;98842.25;;;6.64;100.00
31681;BME280;18281;51.364;9.566;2022-12-29T07:44:08;98842.78;;;6.54;100.00
31681;BME280;18281;51.364;9.566;2022-12-29T07:46:34;98840.53;;;6.48;100.00
31681;BME280;18281;51.364;9.566;2022-12-29T07:49:00;98839.34;;;6.54;100.00
31681;BME280;18281;51.364;9.566;2022-12-29T07:51:25;98830.50;;;6.56;100.00
31681;BME280;18281;51.364;9.566;2022-12-29T07:53:51;98837.41;;;6.57;100.00
31681;BME280;18281;51.364;9.566;2022-12-29T07:56:16;98832.19;;;6.57;100.00
31681;BME280;18281;51.364;9.566;2022-12-29T07:58:42;98837.41;;;6.57;100.00
31681;BME280;18281;51.364;9.566;2022-12-29T08:01:08;98822.69;;;6.56;100.00
31681;BME280;18281;51.364;9.566;2022-12-29T08:03:34;98825.53;;;6.52;100.00
31681;BME280;18281;51.364;9.566;2022-12-29T08:06:00;98828.97;;;6.38;100.00
31681;BME280;18281;51.364;9.566;2022-12-29T08:08:45;98820.59;;;6.47;100.00
31681;BME280;18281;51.364;9.566;2022-12-29T08:14:51;98836.56;;;6.57;100.00
31681;BME280;18281;51.364;9.566;2022-12-29T08:17:31;98834.31;;;6.51;100.00
31681;BME280;18281;51.364;9.566;2022-12-29T08:19:59;98833.44;;;6.50;100.00
31681;BME280;18281;51.364;9.566;2022-12-29T08:22:35;98837.50;;;6.56;100.00
31681;BME280;18281;51.364;9.566;2022-12-29T08:25:16;98842.56;;;6.43;100.00
31681;BME280;18281;51.364;9.566;2022-12-29T08:30:47;98844.66;;;6.52;100.00
31681;BME280;18281;51.364;9.566;2022-12-29T08:33:19;98850.63;;;6.38;100.00
31681;BME280;18281;51.364;9.566;2022-12-29T08:36:10;98863.16;;;6.48;100.00
31681;BME280;18281;51.364;9.566;2022-12-29T08:38:36;98861.84;;;7.16;100.00
31681;BME280;18281;51.364;9.566;2022-12-29T08:41:05;98869.56;;;7.75;100.00
31681;BME280;18281;51.364;9.566;2022-12-29T08:43:31;98866.13;;;7.89;100.00
31681;BME280;18281;51.364;9.566;2022-12-29T08:46:02;98873.72;;;7.65;100.00
31681;BME280;18281;51.364;9.566;2022-12-29T08:51:07;98878.75;;;7.24;100.00
31681;BME280;18281;51.364;9.566;2022-12-29T08:54:00;98890.47;;;7.17;100.00
31681;BME280;18281;51.364;9.566;2022-12-29T08:56:51;98915.00;;;7.29;100.00
31681;BME280;18281;51.364;9.566;2022-12-29T08:59:42;98930.97;;;7.68;100.00
31681;BME280;18281;51.364;9.566;2022-12-29T09:02:15;98933.00;;;8.06;100.00
31681;BME280;18281;51.364;9.566;2022-12-29T09:11:32;98907.72;;;8.48;100.00
31681;BME280;18281;51.364;9.566;2022-12-29T09:13:58;98922.00;;;8.70;100.00
31681;BME280;18281;51.364;9.566;2022-12-29T09:17:07;98911.28;;;8.87;100.00
31681;BME280;18281;51.364;9.566;2022-12-29T09:19:54;98852.97;;;8.98;100.00
31681;BME280;18281;51.364;9.566;2022-12-29T09:22:30;98864.09;;;9.02;100.00
31681;BME280;18281;51.364;9.566;2022-12-29T09:24:59;98904.28;;;9.01;100.00
31681;BME280;18281;51.364;9.566;2022-12-29T09:27:48;98927.44;;;9.07;100.00
31681;BME280;18281;51.364;9.566;2022-12-29T09:30:15;98915.44;;;9.17;100.00
31681;BME280;18281;51.364;9.566;2022-12-29T09:32:51;98903.28;;;9.16;100.00
31681;BME280;18281;51.364;9.566;2022-12-29T09:35:17;98908.72;;;9.26;100.00
31681;BME280;18281;51.364;9.566;2022-12-29T09:37:43;98911.75;;;9.33;100.00
31681;BME280;18281;51.364;9.566;2022-12-29T09:40:34;98892.38;;;9.35;100.00
31681;BME280;18281;51.364;9.566;2022-12-29T09:45:44;98912.50;;;9.35;100.00
31681;BME280;18281;51.364;9.566;2022-12-29T09:48:24;98901.16;;;9.34;100.00
31681;BME280;18281;51.364;9.566;2022-12-29T09:50:56;98906.09;;;9.13;100.00
31681;BME280;18281;51.364;9.566;2022-12-29T09:53:31;98907.94;;;8.98;100.00
31681;BME280;18281;51.364;9.566;2022-12-29T09:56:00;98911.69;;;8.81;100.00
31681;BME280;18281;51.364;9.566;2022-12-29T09:58:32;98901.50;;;8.64;100.00
31681;BME280;18281;51.364;9.566;2022-12-29T10:01:21;98908.53;;;8.49;100.00
31681;BME280;18281;51.364;9.566;2022-12-29T10:03:54;98913.03;;;8.19;100.00
31681;BME280;18281;51.364;9.566;2022-12-29T10:11:57;98917.72;;;8.00;100.00
31681;BME280;18281;51.364;9.566;2022-12-29T10:14:47;98909.69;;;7.88;100.00
31681;BME280;18281;51.364;9.566;2022-12-29T10:20:15;98899.06;;;7.91;100.00
31681;BME280;18281;51.364;9.566;2022-12-29T10:25:47;98906.34;;;8.01;100.00
31681;BME280;18281;51.364;9.566;2022-12-29T10:28:20;98904.44;;;8.03;100.00
31681;BME280;18281;51.364;9.566;2022-12-29T10:30:48;98925.53;;;8.14;100.00
31681;BME280;18281;51.364;9.566;2022-12-29T10:33:20;98931.69;;;8.13;100.00
31681;BME280;18281;51.364;9.566;2022-12-29T10:35:49;98922.81;;;8.16;100.00
31681;BME280;18281;51.364;9.566;2022-12-29T10:38:28;98915.44;;;8.08;100.00
31681;BME280;18281;51.364;9.566;2022-12-29T10:43:47;98919.78;;;7.95;100.00
31681;BME280;18281;51.364;9.566;2022-12-29T10:46:18;98922.47;;;7.93;100.00
31681;BME280;18281;51.364;9.566;2022-12-29T10:48:44;98916.03;;;7.84;100.00
31681;BME280;18281;51.364;9.566;2022-12-29T10:51:25;98916.25;;;7.81;100.00
31681;BME280;18281;51.364;9.566;2022-12-29T10:54:18;98903.53;;;7.89;100.00
31681;BME280;18281;51.364;9.566;2022-12-29T10:57:03;98906.44;;;7.85;100.00
31681;BME280;18281;51.364;9.566;2022-12-29T10:59:32;98900.00;;;7.90;100.00
31681;BME280;18281;51.364;9.566;2022-12-29T11:02:57;98901.31;;;7.83;100.00
31681;BME280;18281;51.364;9.566;2022-12-29T11:05:16;98895.78;;;7.88;100.00
31681;BME280;18281;51.364;9.566;2022-12-29T11:07:47;98906.44;;;7.85;100.00
31681;BME280;18281;51.364;9.566;2022-12-29T11:10:18;98911.84;;;7.82;100.00
31681;BME280;18281;51.364;9.566;2022-12-29T11:13:01;98908.13;;;7.71;100.00
31681;BME280;18281;51.364;9.566;2022-12-29T11:15:46;98916.91;;;7.70;100.00
31681;BME280;18281;51.364;9.566;2022-12-29T11:18:20;98898.72;;;7.69;100.00
31681;BME280;18281;51.364;9.566;2022-12-29T11:20:48;98903.63;;;7.73;100.00
31681;BME280;18281;51.364;9.566;2022-12-29T11:23:25;98905.31;;;7.74;100.00
31681;BME280;18281;51.364;9.566;2022-12-29T11:28:38;98908.78;;;7.61;100.00
31681;BME280;18281;51.364;9.566;2022-12-29T11:31:06;98907.56;;;7.66;100.00
31681;BME280;18281;51.364;9.566;2022-12-29T11:33:33;98921.66;;;7.64;100.00
31681;BME280;18281;51.364;9.566;2022-12-29T11:36:04;98922.03;;;7.72;100.00
31681;BME280;18281;51.364;9.566;2022-12-29T11:38:36;98915.31;;;7.68;100.00
31681;BME280;18281;51.364;9.566;2022-12-29T11:41:04;98919.63;;;7.69;100.00
31681;BME280;18281;51.364;9.566;2022-12-29T11:43:33;98925.84;;;7.66;100.00
31681;BME280;18281;51.364;9.566;2022-12-29T11:46:00;98932.56;;;7.56;100.00
31681;BME280;18281;51.364;9.566;2022-12-29T11:48:38;98934.91;;;7.61;100.00
31681;BME280;18281;51.364;9.566;2022-12-29T11:51:06;98944.88;;;7.68;100.00
31681;BME280;18281;51.364;9.566;2022-12-29T11:53:46;98938.91;;;7.66;100.00
31681;BME280;18281;51.364;9.566;2022-12-29T11:56:20;98941.16;;;7.58;100.00
31681;BME280;18281;51.364;9.566;2022-12-29T11:58:50;98936.56;;;7.62;100.00
31681;BME280;18281;51.364;9.566;2022-12-29T12:01:38;98944.59;;;7.58;100.00
31681;BME280;18281;51.364;9.566;2022-12-29T12:04:16;98936.75;;;7.58;100.00
31681;BME280;18281;51.364;9.566;2022-12-29T12:07:00;98930.88;;;7.55;100.00
31681;BME280;18281;51.364;9.566;2022-12-29T12:09:32;98934.91;;;7.61;100.00
31681;BME280;18281;51.364;9.566;2022-12-29T12:12:00;98939.03;;;7.65;100.00
31681;BME280;18281;51.364;9.566;2022-12-29T12:14:32;98941.06;;;7.60;100.00
31681;BME280;18281;51.364;9.566;2022-12-29T12:17:14;98939.19;;;7.62;100.00
31681;BME280;18281;51.364;9.566;2022-12-29T12:19:47;98950.13;;;7.54;100.00
31681;BME280;18281;51.364;9.566;2022-12-29T12:22:54;98947.66;;;7.51;100.00
31681;BME280;18281;51.364;9.566;2022-12-29T12:25:31;98955.34;;;7.54;100.00
31681;BME280;18281;51.364;9.566;2022-12-29T12:28:11;98958.88;;;7.53;100.00
31681;BME280;18281;51.364;9.566;2022-12-29T12:30:46;98934.44;;;7.54;100.00
31681;BME280;18281;51.364;9.566;2022-12-29T12:33:26;98947.66;;;7.51;100.00
31681;BME280;18281;51.364;9.566;2022-12-29T12:36:22;98939.84;;;7.51;100.00
31681;BME280;18281;51.364;9.566;2022-12-29T12:41:48;98944.22;;;7.50;100.00
31681;BME280;18281;51.364;9.566;2022-12-29T12:45:05;98957.47;;;7.47;100.00
31681;BME280;18281;51.364;9.566;2022-12-29T12:55:33;98956.63;;;7.47;100.00
31681;BME280;18281;51.364;9.566;2022-12-29T12:58:41;98949.72;;;7.46;100.00
31681;BME280;18281;51.364;9.566;2022-12-29T13:13:00;98957.31;;;7.65;100.00
31681;BME280;18281;51.364;9.566;2022-12-29T13:16:09;98953.56;;;7.69;100.00
31681;BME280;18281;51.364;9.566;2022-12-29T13:19:00;98953.84;;;7.50;100.00
31681;BME280;18281;51.364;9.566;2022-12-29T13:21:37;98964.66;;;7.58;100.00
31681;BME280;18281;51.364;9.566;2022-12-29T13:24:15;98961.38;;;7.54;100.00
31681;BME280;18281;51.364;9.566;2022-12-29T13:26:50;98966.63;;;7.54;100.00
31681;BME280;18281;51.364;9.566;2022-12-29T13:29:44;98965.31;;;7.47;100.00
31681;BME280;18281;51.364;9.566;2022-12-29T13:32:33;98961.75;;;7.48;100.00
31681;BME280;18281;51.364;9.566;2022-12-29T13:38:03;98974.44;;;7.54;100.00
31681;BME280;18281;51.364;9.566;2022-12-29T13:40:36;98978.19;;;7.50;100.00
31681;BME280;18281;51.364;9.566;2022-12-29T13:43:04;98977.25;;;7.51;100.00
31681;BME280;18281;51.364;9.566;2022-12-29T13:45:32;98978.44;;;7.46;100.00
31681;BME280;18281;51.364;9.566;2022-12-29T13:50:35;98987.50;;;7.54;100.00
31681;BME280;18281;51.364;9.566;2022-12-29T13:53:51;98995.16;;;7.57;100.00
31681;BME280;18281;51.364;9.566;2022-12-29T13:56:15;99004.19;;;7.52;100.00
31681;BME280;18281;51.364;9.566;2022-12-29T13:59:14;99011.31;;;7.50;100.00
31681;BME280;18281;51.364;9.566;2022-12-29T14:02:30;99012.81;;;7.54;100.00
31681;BME280;18281;51.364;9.566;2022-12-29T14:05:02;99015.66;;;7.49;100.00
31681;BME280;18281;51.364;9.566;2022-12-29T14:07:29;99026.88;;;7.51;100.00
31681;BME280;18281;51.364;9.566;2022-12-29T14:10:03;99017.53;;;7.47;100.00
31681;BME280;18281;51.364;9.566;2022-12-29T14:12:36;99012.97;;;7.51;100.00
31681;BME280;18281;51.364;9.566;2022-12-29T14:17:40;99017.88;;;7.41;100.00
31681;BME280;18281;51.364;9.566;2022-12-29T14:20:17;99026.00;;;7.36;100.00
31681;BME280;18281;51.364;9.566;2022-12-29T14:25:56;99038.09;;;7.37;100.00
31681;BME280;18281;51.364;9.566;2022-12-29T14:28:27;99042.31;;;7.40;100.00
31681;BME280;18281;51.364;9.566;2022-12-29T14:30:55;99043.16;;;7.40;100.00
31681;BME280;18281;51.364;9.566;2022-12-29T14:33:23;99039.59;;;7.41;100.00
31681;BME280;18281;51.364;9.566;2022-12-29T14:35:51;99044.00;;;7.41;100.00
31681;BME280;18281;51.364;9.566;2022-12-29T14:38:28;99037.75;;;7.44;100.00
31681;BME280;18281;51.364;9.566;2022-12-29T14:41:33;99044.28;;;7.36;100.00
31681;BME280;18281;51.364;9.566;2022-12-29T14:44:09;99044.00;;;7.41;100.00
31681;BME280;18281;51.364;9.566;2022-12-29T14:46:47;99057.97;;;7.40;100.00
31681;BME280;18281;51.364;9.566;2022-12-29T14:49:17;99054.63;;;7.38;100.00
31681;BME280;18281;51.364;9.566;2022-12-29T14:51:46;99064.97;;;7.39;100.00
31681;BME280;18281;51.364;9.566;2022-12-29T14:57:00;99066.81;;;7.37;100.00
31681;BME280;18281;51.364;9.566;2022-12-29T14:59:29;99069.63;;;7.34;100.00
31681;BME280;18281;51.364;9.566;2022-12-29T15:01:57;99071.47;;;7.32;100.00
31681;BME280;18281;51.364;9.566;2022-12-29T15:04:28;99077.56;;;7.33;100.00
31681;BME280;18281;51.364;9.566;2022-12-29T15:06:55;99077.56;;;7.33;100.00